createdAt,value
2018-04-28T00:01:11.517Z,15.19
2018-04-28T00:03:39.156Z,15.19
2018-04-28T00:06:06.751Z,15.18
2018-04-28T00:08:36.142Z,15.20
2018-04-28T00:11:03.763Z,15.18
2018-04-28T00:13:32.152Z,15.23
2018-04-28T00:16:14.646Z,15.26
2018-04-28T00:18:46.029Z,15.27
2018-04-28T00:21:13.666Z,15.33
2018-04-28T00:23:46.777Z,15.36
2018-04-28T00:26:14.739Z,15.34
2018-04-28T00:28:45.010Z,15.33
2018-04-28T00:31:21.541Z,15.28
2018-04-28T00:33:50.705Z,15.26
2018-04-28T00:39:23.617Z,15.16
2018-04-28T00:41:52.028Z,15.14
2018-04-28T00:44:21.443Z,15.10
2018-04-28T00:50:04.926Z,15.03
2018-04-28T00:52:32.815Z,15.02
2018-04-28T00:55:03.076Z,14.97
2018-04-28T01:00:54.581Z,15.04
2018-04-28T01:03:25.072Z,15.05
2018-04-28T01:05:53.475Z,15.04
2018-04-28T01:08:26.013Z,15.02
2018-04-28T01:13:59.465Z,15.08
2018-04-28T01:16:27.068Z,15.15
2018-04-28T01:18:56.314Z,15.11
2018-04-28T01:21:44.423Z,15.20
2018-04-28T01:24:17.700Z,15.24
2018-04-28T01:27:05.958Z,15.25
2018-04-28T01:29:37.254Z,15.21
2018-04-28T01:32:09.711Z,15.39
2018-04-28T01:34:41.704Z,15.35
2018-04-28T01:40:12.445Z,15.32
2018-04-28T01:42:48.628Z,15.24
2018-04-28T01:45:17.943Z,15.30
2018-04-28T01:50:54.974Z,15.31
2018-04-28T01:53:28.507Z,15.27
2018-04-28T01:59:08.191Z,15.37
2018-04-28T02:01:38.561Z,15.35
2018-04-28T02:04:07.237Z,15.38
2018-04-28T02:06:58.319Z,15.38
2018-04-28T02:09:25.954Z,15.54
2018-04-28T02:11:54.396Z,15.29
2018-04-28T02:14:53.590Z,15.40
2018-04-28T02:17:21.179Z,15.52
2018-04-28T02:23:15.366Z,15.47
2018-04-28T02:25:59.702Z,15.41
2018-04-28T02:28:33.006Z,15.34
2018-04-28T02:31:01.694Z,15.37
2018-04-28T02:33:29.959Z,15.33
2018-04-28T02:38:59.910Z,15.29
2018-04-28T02:41:37.419Z,15.27
2018-04-28T02:44:05.879Z,15.25
2018-04-28T02:46:38.161Z,15.21
2018-04-28T02:49:16.124Z,15.21
2018-04-28T02:51:47.141Z,15.15
2018-04-28T02:54:17.398Z,15.03
2018-04-28T02:56:55.233Z,14.98
2018-04-28T02:59:26.590Z,14.96
2018-04-28T03:05:17.067Z,14.89
2018-04-28T03:10:46.066Z,14.91
2018-04-28T03:13:24.721Z,14.92
2018-04-28T03:15:56.861Z,14.87
2018-04-28T03:18:25.594Z,14.88
2018-04-28T03:20:56.061Z,14.83
2018-04-28T03:23:25.466Z,14.79
2018-04-28T03:25:56.707Z,14.76
2018-04-28T03:28:42.242Z,14.80
2018-04-28T03:34:23.145Z,14.76
2018-04-28T03:39:55.629Z,14.63
2018-04-28T03:45:39.390Z,14.58
2018-04-28T03:48:15.810Z,14.62
2018-04-28T03:50:57.364Z,14.67
2018-04-28T03:53:43.522Z,14.70
2018-04-28T03:56:14.131Z,14.68
2018-04-28T03:58:53.480Z,14.63
2018-04-28T04:01:33.121Z,14.61
2018-04-28T04:07:37.597Z,14.53
2018-04-28T04:10:05.192Z,14.52
2018-04-28T04:12:45.606Z,14.48
2018-04-28T04:18:17.078Z,14.51
2018-04-28T04:20:52.478Z,14.45
2018-04-28T04:23:26.025Z,14.47
2018-04-28T04:29:21.350Z,14.49
2018-04-28T04:35:14.962Z,14.50
2018-04-28T04:41:01.371Z,14.55
2018-04-28T04:43:36.633Z,14.56
2018-04-28T04:46:07.926Z,14.57
2018-04-28T04:48:38.931Z,14.59
2018-04-28T04:51:07.393Z,14.63
2018-04-28T04:53:41.805Z,14.63
2018-04-28T04:59:22.322Z,14.71
2018-04-28T05:04:51.532Z,14.77
2018-04-28T05:10:59.576Z,14.86
2018-04-28T05:13:46.891Z,14.90
2018-04-28T05:16:29.309Z,15.06
2018-04-28T05:19:01.666Z,15.14
2018-04-28T05:21:44.149Z,15.08
2018-04-28T05:30:49.986Z,15.22
2018-04-28T05:33:40.297Z,15.27
2018-04-28T05:39:35.086Z,15.39
2018-04-28T05:42:27.172Z,15.43
2018-04-28T05:45:00.507Z,15.37
2018-04-28T05:47:29.779Z,15.37
2018-04-28T05:53:13.947Z,15.58
2018-04-28T05:59:23.304Z,15.67
2018-04-28T06:05:14.871Z,15.61
2018-04-28T06:11:05.298Z,15.54
2018-04-28T06:13:53.550Z,15.60
2018-04-28T06:16:30.705Z,15.41
2018-04-28T06:19:08.290Z,15.42
2018-04-28T06:21:35.882Z,15.49
2018-04-28T06:24:03.572Z,15.52
2018-04-28T06:26:31.160Z,15.69
2018-04-28T06:28:59.023Z,15.66
2018-04-28T06:31:26.621Z,15.63
2018-04-28T06:33:54.236Z,15.51
2018-04-28T06:36:21.847Z,15.63
2018-04-28T06:38:49.454Z,15.88
2018-04-28T06:41:17.093Z,15.71
2018-04-28T06:43:44.691Z,15.79
2018-04-28T06:46:12.425Z,15.82
2018-04-28T06:48:40.022Z,15.98
2018-04-28T06:51:07.669Z,16.02
2018-04-28T06:53:35.243Z,16.05
2018-04-28T06:56:02.843Z,15.96
2018-04-28T06:58:30.512Z,16.38
2018-04-28T07:00:58.142Z,16.28
2018-04-28T07:03:25.961Z,16.21
2018-04-28T07:05:53.551Z,16.49
2018-04-28T07:08:21.147Z,16.60
2018-04-28T07:10:48.790Z,16.60
2018-04-28T07:13:16.387Z,16.21
2018-04-28T07:15:43.999Z,16.26
2018-04-28T07:18:11.602Z,16.41
2018-04-28T07:20:39.195Z,16.35
2018-04-28T07:23:06.822Z,16.30
2018-04-28T07:25:34.609Z,16.50
2018-04-28T07:28:02.239Z,16.55
2018-04-28T07:30:29.865Z,16.61
2018-04-28T07:32:57.492Z,16.81
2018-04-28T07:35:25.262Z,16.54
2018-04-28T07:37:52.864Z,16.72
2018-04-28T07:40:20.452Z,16.79
2018-04-28T07:42:48.066Z,16.87
2018-04-28T07:45:15.654Z,17.12
2018-04-28T07:47:43.313Z,17.23
2018-04-28T07:50:10.908Z,17.42
2018-04-28T07:52:38.547Z,17.67
2018-04-28T07:55:06.153Z,17.63
2018-04-28T07:57:33.771Z,17.72
2018-04-28T08:00:01.429Z,17.82
2018-04-28T08:02:29.088Z,17.84
2018-04-28T08:04:56.685Z,17.77
2018-04-28T08:07:24.358Z,17.74
2018-04-28T08:09:51.967Z,17.82
2018-04-28T08:12:19.554Z,17.84
2018-04-28T08:14:47.167Z,17.90
2018-04-28T08:17:14.781Z,17.96
2018-04-28T08:19:42.614Z,18.20
2018-04-28T08:22:10.227Z,17.95
2018-04-28T08:24:37.936Z,17.98
2018-04-28T08:27:05.539Z,17.78
2018-04-28T08:29:33.140Z,18.08
2018-04-28T08:32:00.750Z,18.22
2018-04-28T08:34:28.347Z,18.43
2018-04-28T08:36:56.043Z,18.61
2018-04-28T08:39:23.565Z,18.16
2018-04-28T08:41:51.179Z,18.05
2018-04-28T08:44:18.779Z,18.09
2018-04-28T08:46:46.382Z,18.26
2018-04-28T08:49:13.995Z,18.41
2018-04-28T08:51:41.605Z,18.35
2018-04-28T08:54:09.214Z,18.52
2018-04-28T08:56:36.836Z,18.48
2018-04-28T08:59:04.612Z,18.31
2018-04-28T09:01:32.212Z,18.21
2018-04-28T09:03:59.991Z,18.19
2018-04-28T09:06:27.583Z,18.28
2018-04-28T09:08:55.178Z,18.61
2018-04-28T09:11:22.794Z,18.50
2018-04-28T09:13:50.394Z,18.38
2018-04-28T09:16:18.011Z,18.40
2018-04-28T09:18:45.614Z,18.47
2018-04-28T09:21:13.252Z,18.55
2018-04-28T09:23:40.859Z,18.55
2018-04-28T09:26:08.454Z,18.33
2018-04-28T09:28:36.063Z,18.49
2018-04-28T09:31:03.660Z,18.63
2018-04-28T09:33:31.272Z,18.37
2018-04-28T09:35:58.863Z,18.37
2018-04-28T09:38:26.486Z,18.41
2018-04-28T09:40:54.075Z,18.31
2018-04-28T09:43:21.695Z,18.21
2018-04-28T09:45:49.299Z,18.65
2018-04-28T09:48:16.933Z,18.57
2018-04-28T09:50:44.531Z,18.61
2018-04-28T09:53:12.186Z,18.77
2018-04-28T09:55:39.776Z,18.72
2018-04-28T09:58:07.390Z,19.05
2018-04-28T10:03:41.265Z,19.40
2018-04-28T10:06:08.854Z,19.54
2018-04-28T10:08:36.685Z,19.73
2018-04-28T10:11:04.270Z,19.77
2018-04-28T10:13:31.854Z,19.90
2018-04-28T10:15:59.465Z,19.81
2018-04-28T10:18:27.064Z,19.80
2018-04-28T10:20:54.791Z,19.79
2018-04-28T10:23:22.469Z,19.72
2018-04-28T10:25:50.055Z,19.70
2018-04-28T10:28:18.461Z,19.77
2018-04-28T10:30:46.061Z,19.75
2018-04-28T10:33:13.703Z,19.86
2018-04-28T10:35:41.318Z,20.14
2018-04-28T10:38:08.904Z,20.19
2018-04-28T10:40:36.524Z,20.09
2018-04-28T10:43:04.110Z,20.38
2018-04-28T10:45:32.039Z,20.09
2018-04-28T10:47:59.632Z,20.13
2018-04-28T10:50:27.216Z,20.28
2018-04-28T10:52:54.827Z,20.51
2018-04-28T10:55:22.421Z,20.30
2018-04-28T10:57:50.032Z,20.17
2018-04-28T11:00:17.621Z,20.14
2018-04-28T11:02:45.239Z,20.49
2018-04-28T11:05:12.854Z,20.16
2018-04-28T11:07:40.448Z,20.48
2018-04-28T11:10:08.066Z,20.71
2018-04-28T11:12:35.671Z,20.83
2018-04-28T11:15:03.290Z,20.94
2018-04-28T11:17:30.894Z,20.49
2018-04-28T11:19:58.548Z,20.18
2018-04-28T11:22:26.118Z,20.54
2018-04-28T11:24:53.716Z,20.69
2018-04-28T11:27:21.337Z,20.53
2018-04-28T11:29:48.940Z,20.29
2018-04-28T11:32:16.524Z,20.20
2018-04-28T11:34:44.135Z,20.11
2018-04-28T11:37:11.724Z,20.21
2018-04-28T11:39:39.334Z,20.40
2018-04-28T11:42:06.925Z,20.60
2018-04-28T11:44:34.519Z,20.93
2018-04-28T11:47:02.132Z,21.07
2018-04-28T11:49:29.736Z,21.40
2018-04-28T11:51:57.350Z,21.69
2018-04-28T11:54:24.939Z,21.92
2018-04-28T11:56:52.542Z,21.97
2018-04-28T11:59:20.181Z,21.99
2018-04-28T12:01:47.774Z,21.80
2018-04-28T12:04:15.399Z,21.95
2018-04-28T12:06:42.991Z,20.89
2018-04-28T12:09:10.597Z,20.89
2018-04-28T12:11:38.205Z,21.25
2018-04-28T12:14:05.794Z,21.34
2018-04-28T12:16:33.411Z,21.58
2018-04-28T12:19:01.005Z,21.43
2018-04-28T12:21:28.622Z,20.92
2018-04-28T12:23:56.228Z,21.39
2018-04-28T12:26:23.834Z,21.26
2018-04-28T12:28:51.440Z,21.74
2018-04-28T12:31:19.051Z,21.98
2018-04-28T12:33:46.645Z,21.45
2018-04-28T12:36:14.260Z,21.72
2018-04-28T12:38:41.847Z,21.77
2018-04-28T12:41:09.459Z,21.42
2018-04-28T12:43:37.051Z,21.83
2018-04-28T12:46:04.848Z,22.31
2018-04-28T12:48:32.450Z,22.80
2018-04-28T12:51:00.042Z,23.56
2018-04-28T12:53:27.677Z,24.25
2018-04-28T12:55:55.269Z,24.53
2018-04-28T12:58:23.052Z,25.06
2018-04-28T13:00:50.647Z,25.13
2018-04-28T13:03:18.234Z,24.78
2018-04-28T13:05:45.855Z,25.33
2018-04-28T13:08:13.441Z,25.32
2018-04-28T13:10:41.263Z,26.53
2018-04-28T13:13:08.855Z,27.02
2018-04-28T13:15:36.506Z,25.62
2018-04-28T13:18:04.207Z,26.25
2018-04-28T13:20:31.846Z,26.27
2018-04-28T13:22:59.896Z,26.45
2018-04-28T13:25:27.517Z,24.81
2018-04-28T13:27:55.113Z,25.01
2018-04-28T13:30:23.185Z,24.80
2018-04-28T13:32:50.773Z,25.86
2018-04-28T13:35:18.475Z,25.96
2018-04-28T13:37:46.067Z,26.79
2018-04-28T13:40:15.570Z,26.59
2018-04-28T13:42:43.191Z,26.58
2018-04-28T13:45:10.796Z,26.82
2018-04-28T13:47:38.989Z,26.59
2018-04-28T13:50:06.591Z,25.84
2018-04-28T13:52:34.178Z,25.11
2018-04-28T13:55:01.793Z,24.92
2018-04-28T13:57:29.422Z,24.01
2018-04-28T13:59:57.387Z,24.02
2018-04-28T14:02:24.983Z,23.75
2018-04-28T14:04:52.579Z,23.57
2018-04-28T14:07:20.235Z,23.92
2018-04-28T14:09:47.832Z,23.97
2018-04-28T14:12:15.802Z,24.47
2018-04-28T14:14:43.390Z,24.26
2018-04-28T14:17:11.004Z,23.49
2018-04-28T14:19:38.623Z,23.57
2018-04-28T14:22:06.210Z,23.82
2018-04-28T14:24:34.310Z,23.38
2018-04-28T14:27:01.947Z,23.29
2018-04-28T14:29:29.538Z,23.04
2018-04-28T14:31:57.205Z,23.28
2018-04-28T14:34:24.908Z,22.80
2018-04-28T14:36:52.682Z,22.77
2018-04-28T14:39:20.269Z,22.53
2018-04-28T14:41:47.858Z,22.55
2018-04-28T14:44:15.568Z,22.50
2018-04-28T14:46:43.167Z,22.56
2018-04-28T14:49:10.790Z,22.66
2018-04-28T14:51:38.380Z,22.61
2018-04-28T14:54:05.981Z,22.28
2018-04-28T14:56:33.600Z,22.47
2018-04-28T14:59:01.200Z,22.45
2018-04-28T15:01:29.152Z,22.52
2018-04-28T15:03:56.749Z,22.59
2018-04-28T15:06:24.365Z,22.73
2018-04-28T15:08:51.974Z,22.56
2018-04-28T15:11:19.738Z,22.41
2018-04-28T15:13:47.573Z,22.61
2018-04-28T15:16:15.166Z,22.52
2018-04-28T15:18:42.751Z,22.43
2018-04-28T15:21:10.373Z,22.30
2018-04-28T15:23:38.057Z,22.41
2018-04-28T15:26:05.725Z,22.39
2018-04-28T15:28:33.355Z,22.36
2018-04-28T15:31:00.967Z,22.32
2018-04-28T15:33:28.775Z,22.18
2018-04-28T15:35:56.384Z,22.25
2018-04-28T15:38:24.183Z,22.26
2018-04-28T15:40:51.802Z,22.24
2018-04-28T15:43:19.462Z,22.28
2018-04-28T15:45:47.079Z,22.27
2018-04-28T15:48:14.678Z,22.20
2018-04-28T15:50:42.591Z,22.22
2018-04-28T15:53:10.276Z,22.31
2018-04-28T15:55:37.866Z,22.21
2018-04-28T15:58:05.492Z,22.14
2018-04-28T16:00:33.091Z,22.02
2018-04-28T16:03:00.706Z,21.93
2018-04-28T16:05:28.299Z,21.89
2018-04-28T16:07:56.001Z,21.92
2018-04-28T16:10:23.635Z,22.00
2018-04-28T16:12:51.244Z,21.98
2018-04-28T16:15:19.048Z,21.93
2018-04-28T16:17:46.646Z,21.94
2018-04-28T16:20:14.295Z,21.97
2018-04-28T16:22:41.915Z,21.82
2018-04-28T16:25:09.529Z,21.74
2018-04-28T16:27:37.125Z,21.79
2018-04-28T16:30:04.739Z,21.65
2018-04-28T16:32:32.345Z,21.67
2018-04-28T16:34:59.968Z,21.69
2018-04-28T16:37:27.558Z,21.73
2018-04-28T16:39:55.179Z,21.58
2018-04-28T16:42:22.774Z,21.67
2018-04-28T16:44:50.405Z,21.66
2018-04-28T16:47:18.004Z,21.73
2018-04-28T16:49:45.619Z,21.81
2018-04-28T16:52:13.216Z,21.91
2018-04-28T16:54:40.839Z,21.73
2018-04-28T16:57:08.433Z,21.92
2018-04-28T16:59:36.441Z,21.97
2018-04-28T17:02:04.112Z,22.29
2018-04-28T17:04:31.703Z,22.57
2018-04-28T17:06:59.320Z,23.05
2018-04-28T17:09:26.913Z,23.49
2018-04-28T17:11:54.526Z,23.60
2018-04-28T17:14:22.128Z,23.05
2018-04-28T17:16:49.792Z,22.87
2018-04-28T17:19:17.356Z,22.84
2018-04-28T17:21:44.987Z,22.80
2018-04-28T17:24:12.584Z,22.38
2018-04-28T17:26:40.315Z,21.80
2018-04-28T17:29:07.908Z,21.60
2018-04-28T17:31:35.518Z,21.55
2018-04-28T17:34:03.122Z,21.37
2018-04-28T17:36:30.727Z,21.27
2018-04-28T17:38:58.340Z,21.26
2018-04-28T17:41:25.990Z,21.21
2018-04-28T17:43:53.619Z,21.01
2018-04-28T17:46:21.217Z,20.76
2018-04-28T17:48:48.813Z,20.49
2018-04-28T17:51:16.470Z,20.36
2018-04-28T17:53:44.076Z,20.34
2018-04-28T17:56:11.723Z,20.27
2018-04-28T17:58:39.324Z,20.14
2018-04-28T18:01:07.136Z,20.20
2018-04-28T18:03:34.721Z,20.14
2018-04-28T18:06:02.337Z,19.89
2018-04-28T18:08:29.967Z,19.83
2018-04-28T18:10:57.558Z,19.85
2018-04-28T18:13:25.180Z,19.92
2018-04-28T18:15:52.780Z,19.75
2018-04-28T18:18:20.612Z,19.70
2018-04-28T18:20:48.206Z,19.59
2018-04-28T18:23:15.797Z,19.54
2018-04-28T18:25:43.427Z,19.43
2018-04-28T18:28:11.023Z,19.39
2018-04-28T18:30:38.640Z,19.33
2018-04-28T18:33:06.234Z,19.24
2018-04-28T18:35:34.249Z,19.22
2018-04-28T18:38:01.844Z,19.23
2018-04-28T18:40:29.435Z,19.12
2018-04-28T18:42:57.126Z,19.18
2018-04-28T18:45:24.804Z,19.06
2018-04-28T18:47:52.422Z,18.99
2018-04-28T18:50:20.033Z,18.95
2018-04-28T18:52:47.896Z,19.05
2018-04-28T18:55:15.484Z,18.85
2018-04-28T18:57:43.076Z,18.82
2018-04-28T19:00:10.687Z,18.75
2018-04-28T19:02:38.284Z,18.69
2018-04-28T19:05:05.907Z,18.59
2018-04-28T19:07:33.512Z,18.66
2018-04-28T19:10:01.153Z,18.59
2018-04-28T19:12:28.747Z,18.54
2018-04-28T19:14:56.387Z,18.49
2018-04-28T19:17:24.002Z,18.49
2018-04-28T19:19:51.599Z,18.42
2018-04-28T19:22:19.366Z,18.51
2018-04-28T19:24:46.833Z,18.45
2018-04-28T19:27:14.424Z,18.39
2018-04-28T19:29:42.346Z,18.30
2018-04-28T19:32:10.081Z,18.30
2018-04-28T19:34:37.949Z,18.23
2018-04-28T19:37:05.546Z,18.25
2018-04-28T19:39:33.138Z,18.19
2018-04-28T19:42:01.125Z,18.22
2018-04-28T19:44:28.737Z,18.17
2018-04-28T19:46:56.902Z,18.14
2018-04-28T19:49:24.508Z,18.04
2018-04-28T19:51:52.634Z,18.00
2018-04-28T19:54:20.295Z,18.02
2018-04-28T19:56:47.846Z,18.06
2018-04-28T19:59:15.461Z,18.05
2018-04-28T20:01:43.074Z,17.99
2018-04-28T20:04:10.733Z,17.95
2018-04-28T20:06:38.403Z,17.90
2018-04-28T20:09:06.350Z,17.91
2018-04-28T20:11:33.964Z,17.83
2018-04-28T20:14:01.559Z,17.75
2018-04-28T20:16:29.199Z,17.74
2018-04-28T20:18:56.807Z,17.76
2018-04-28T20:21:24.427Z,17.76
2018-04-28T20:24:03.773Z,17.75
2018-04-28T20:26:31.383Z,17.77
2018-04-28T20:28:58.974Z,17.73
2018-04-28T20:31:26.603Z,17.68
2018-04-28T20:33:54.196Z,17.60
2018-04-28T20:36:21.803Z,17.65
2018-04-28T20:38:49.461Z,17.67
2018-04-28T20:41:17.230Z,17.62
2018-04-28T20:43:44.837Z,17.57
2018-04-28T20:46:12.446Z,17.57
2018-04-28T20:48:40.060Z,17.55
2018-04-28T20:51:07.647Z,17.52
2018-04-28T20:53:35.273Z,17.54
2018-04-28T20:56:02.871Z,17.49
2018-04-28T20:58:30.497Z,17.44
2018-04-28T21:00:58.099Z,17.41
2018-04-28T21:03:25.736Z,17.38
2018-04-28T21:05:53.338Z,17.37
2018-04-28T21:08:21.254Z,17.29
2018-04-28T21:10:48.875Z,17.19
2018-04-28T21:13:16.467Z,17.17
2018-04-28T21:15:44.078Z,17.08
2018-04-28T21:18:11.674Z,17.05
2018-04-28T21:20:39.312Z,17.02
2018-04-28T21:23:06.902Z,16.99
2018-04-28T21:25:34.941Z,16.93
2018-04-28T21:28:02.534Z,16.82
2018-04-28T21:30:30.126Z,16.90
2018-04-28T21:32:57.726Z,16.91
2018-04-28T21:35:25.330Z,16.92
2018-04-28T21:37:52.947Z,16.94
2018-04-28T21:40:20.548Z,16.95
2018-04-28T21:42:48.484Z,16.93
2018-04-28T21:45:16.070Z,16.96
2018-04-28T21:47:43.659Z,16.98
2018-04-28T21:50:11.271Z,16.89
2018-04-28T21:52:38.862Z,16.84
2018-04-28T21:55:06.498Z,16.92
2018-04-28T21:57:34.101Z,16.97
2018-04-28T22:00:01.723Z,16.91
2018-04-28T22:02:29.328Z,16.82
2018-04-28T22:04:57.043Z,16.83
2018-04-28T22:07:24.634Z,16.84
2018-04-28T22:09:52.254Z,16.83
2018-04-28T22:12:19.849Z,16.90
2018-04-28T22:14:47.470Z,16.84
2018-04-28T22:17:15.058Z,16.72
2018-04-28T22:19:44.046Z,16.71
2018-04-28T22:22:11.686Z,16.67
2018-04-28T22:24:39.289Z,16.62
2018-04-28T22:27:06.913Z,16.55
2018-04-28T22:29:34.507Z,16.58
2018-04-28T22:32:02.122Z,16.58
2018-04-28T22:34:29.714Z,16.49
2018-04-28T22:36:57.351Z,16.47
2018-04-28T22:39:24.940Z,16.42
2018-04-28T22:41:52.561Z,16.34
2018-04-28T22:44:20.191Z,16.42
2018-04-28T22:46:47.787Z,16.40
2018-04-28T22:49:15.400Z,16.38
2018-04-28T22:51:42.986Z,16.30
2018-04-28T22:54:10.764Z,16.30
2018-04-28T22:56:38.366Z,16.27
2018-04-28T22:59:05.974Z,16.22
2018-04-28T23:01:33.586Z,16.21
2018-04-28T23:04:01.175Z,16.17
2018-04-28T23:06:28.794Z,16.20
2018-04-28T23:08:56.386Z,16.18
2018-04-28T23:11:24.031Z,16.18
2018-04-28T23:13:51.751Z,16.20
2018-04-28T23:16:19.450Z,16.20
2018-04-28T23:18:47.062Z,16.29
2018-04-28T23:21:14.659Z,16.25
2018-04-28T23:23:42.280Z,16.19
2018-04-28T23:26:09.874Z,16.28
2018-04-28T23:28:37.505Z,16.22
2018-04-28T23:31:05.130Z,16.35
2018-04-28T23:33:32.729Z,16.06
2018-04-28T23:36:00.359Z,15.82
2018-04-28T23:38:27.956Z,15.53
2018-04-28T23:40:55.583Z,15.75
2018-04-28T23:43:23.170Z,15.72
2018-04-28T23:45:50.772Z,15.77
2018-04-28T23:48:18.465Z,15.66
2018-04-28T23:50:46.068Z,15.47
2018-04-28T23:53:13.783Z,15.46
2018-04-28T23:55:41.381Z,15.32
2018-04-28T23:58:08.975Z,15.25
